»·PEaware :: WAT463 KJAC-KBZN

WAT463 :: KJAC-KBZN

FLIGHT INFORMATION

Flight Status: Arrived
Operator:
Walker Air Transport
More flights by this operator :: More flights under this callsign
Pilot: Dan S. (31216)
Aircraft: Unknown
(C82S)
More flights by this aircraft type
Origin: KJAC Jackson Hole
United States
Destination: KBZN Gallatin
United States
More flights between these airports :: More routes between these airports
Route: ALPIN2 KICNE BZN
File this flight plan on PilotEdge
Remarks:
Altitude:
(Current/Filed)
16,000ft
Speed:
(Current/Filed)
150kts
Departed: 12-Nov-21 07:36 PM
Arrived: 12-Nov-21 08:46 PM
Distance/Time
Traveled:
131nm/1:10
Distance/Time
To Go:
Arrived

Flight Plot

Page will automatically refresh every two minutes.

Flight plan parsing failed; only flown route is shown


Map Options




Map Legend


Flown Route
Filed Route
Departure Airport
Arrival Airport
Navaid (VOR, NDB)
Fix

Horizontal Profiles

Position Reports

Time Latitude Longitude Heading Altitude Ground
Speed
12-Nov-21 19:20 43.599382 -110.739374 101 6457ft 0kts
12-Nov-21 19:21 43.599382 -110.739374 101 6457ft 0kts
12-Nov-21 19:22 43.599382 -110.739374 101 6457ft 0kts
12-Nov-21 19:23 43.599382 -110.739374 101 6457ft 0kts
12-Nov-21 19:24 43.599382 -110.739374 101 6457ft 0kts
12-Nov-21 19:25 43.599382 -110.739374 101 6457ft 0kts
12-Nov-21 19:26 43.600035 -110.739491 323 6457ft 10kts
12-Nov-21 19:27 43.604823 -110.737399 19 6457ft 27kts
12-Nov-21 19:29 43.611511 -110.734100 28 6457ft 21kts
12-Nov-21 19:30 43.614531 -110.732065 313 6457ft 0kts
12-Nov-21 19:31 43.614531 -110.732065 313 6457ft 0kts
12-Nov-21 19:32 43.614531 -110.732066 313 6457ft 0kts
12-Nov-21 19:33 43.614531 -110.732065 313 6457ft 0kts
12-Nov-21 19:34 43.614957 -110.732599 318 6457ft 0kts
12-Nov-21 19:35 43.614957 -110.732599 318 6457ft 0kts
12-Nov-21 19:36 43.604720 -110.739137 199 6677ft 92kts
12-Nov-21 19:37 43.579891 -110.754972 209 7747ft 98kts
12-Nov-21 19:38 43.553950 -110.772084 211 8616ft 102kts
12-Nov-21 19:39 43.528292 -110.788708 211 9595ft 89kts
12-Nov-21 19:40 43.503617 -110.804612 215 10858ft 88kts
12-Nov-21 19:41 43.480399 -110.819753 217 11647ft 102kts
12-Nov-21 19:42 43.454101 -110.836641 220 12291ft 102kts
12-Nov-21 19:43 43.427890 -110.853550 221 12893ft 105kts
12-Nov-21 19:44 43.401246 -110.870726 223 13488ft 107kts
12-Nov-21 19:45 43.374168 -110.888176 224 14084ft 108kts
12-Nov-21 19:46 43.347066 -110.905634 224 14672ft 109kts
12-Nov-21 19:47 43.317741 -110.924647 223 15095ft 122kts
12-Nov-21 19:48 43.286552 -110.944564 223 15552ft 123kts
12-Nov-21 19:49 43.253711 -110.965652 223 16010ft 125kts
12-Nov-21 19:50 43.229710 -110.994130 304 16040ft 105kts
12-Nov-21 19:51 43.260208 -111.009479 341 16029ft 124kts
12-Nov-21 19:52 43.296959 -111.004352 11 16030ft 145kts
12-Nov-21 19:53 43.330614 -110.971382 52 16035ft 173kts
12-Nov-21 19:54 43.333469 -110.900134 72 16029ft 185kts
12-Nov-21 19:54 43.339723 -110.841882 71 16029ft 184kts
12-Nov-21 19:55 43.350106 -110.774163 27 16034ft 158kts
12-Nov-21 19:57 43.393558 -110.771447 341 16002ft 126kts
12-Nov-21 19:58 43.431046 -110.777063 341 16003ft 140kts
12-Nov-21 19:58 43.463756 -110.782012 341 15999ft 141kts
12-Nov-21 19:59 43.501495 -110.787828 341 16002ft 140kts
12-Nov-21 20:00 43.540837 -110.793906 341 16002ft 142kts
12-Nov-21 20:01 43.579628 -110.799886 340 16001ft 139kts
12-Nov-21 20:02 43.618120 -110.805880 340 16000ft 139kts
12-Nov-21 20:03 43.656791 -110.811899 340 16000ft 139kts
12-Nov-21 20:04 43.696408 -110.818073 340 16000ft 139kts
12-Nov-21 20:05 43.737272 -110.824392 340 15999ft 139kts
12-Nov-21 20:06 43.778070 -110.830785 339 16000ft 141kts
12-Nov-21 20:07 43.819135 -110.837247 339 15981ft 143kts
12-Nov-21 20:08 43.864874 -110.844404 339 15984ft 142kts
12-Nov-21 20:09 43.919736 -110.853011 339 16008ft 142kts
12-Nov-21 20:10 43.962863 -110.859790 339 16007ft 142kts
12-Nov-21 20:11 44.004239 -110.866300 339 16007ft 142kts
12-Nov-21 20:12 44.046884 -110.873021 339 16007ft 142kts
12-Nov-21 20:13 44.089849 -110.879804 339 16007ft 142kts
12-Nov-21 20:14 44.156655 -110.890387 339 16051ft 142kts
12-Nov-21 20:15 44.236223 -110.902981 339 16050ft 143kts
12-Nov-21 20:16 44.316152 -110.915698 339 15981ft 145kts
12-Nov-21 20:17 44.396140 -110.928419 339 15974ft 144kts
12-Nov-21 20:18 44.476017 -110.941192 339 15973ft 143kts
12-Nov-21 20:19 44.555499 -110.953915 339 15972ft 143kts
12-Nov-21 20:20 44.635701 -110.966837 339 15971ft 143kts
12-Nov-21 20:21 44.715071 -110.979609 339 15970ft 143kts
12-Nov-21 20:22 44.794066 -110.992374 339 15968ft 144kts
12-Nov-21 20:23 44.874650 -111.005537 340 15969ft 146kts
12-Nov-21 20:24 44.956354 -111.018713 340 15968ft 146kts
12-Nov-21 20:25 45.037446 -111.031927 340 15967ft 146kts
12-Nov-21 20:26 45.110605 -111.043849 340 15973ft 146kts
12-Nov-21 20:27 45.149635 -111.050295 340 16184ft 144kts
12-Nov-21 20:28 45.190326 -111.056981 340 16120ft 149kts
12-Nov-21 20:29 45.231301 -111.063669 340 16119ft 148kts
12-Nov-21 20:30 45.271731 -111.070260 339 15745ft 149kts
12-Nov-21 20:31 45.312774 -111.077075 339 15047ft 148kts
12-Nov-21 20:32 45.353808 -111.083862 339 14343ft 147kts
12-Nov-21 20:33 45.393458 -111.090407 339 13390ft 145kts
12-Nov-21 20:34 45.425528 -111.095726 339 12587ft 147kts
12-Nov-21 20:35 45.471457 -111.103232 337 11998ft 132kts
12-Nov-21 20:36 45.506150 -111.109083 336 11999ft 127kts
12-Nov-21 20:37 45.542198 -111.115191 338 12002ft 142kts
12-Nov-21 20:38 45.582008 -111.126659 331 11157ft 145kts
12-Nov-21 20:39 45.619393 -111.145685 311 9642ft 137kts
12-Nov-21 20:40 45.655318 -111.174955 334 7598ft 171kts
12-Nov-21 20:41 45.701103 -111.173818 5 6085ft 156kts
12-Nov-21 20:42 45.744448 -111.167187 3 5394ft 161kts
12-Nov-21 20:43 45.780787 -111.185815 320 5302ft 113kts
12-Nov-21 20:44 45.787420 -111.165580 137 4526ft 76kts
12-Nov-21 20:45 45.779213 -111.155414 223 4477ft 15kts
12-Nov-21 20:46 45.774412 -111.153005 171 4477ft 29kts
12-Nov-21 20:47 45.772704 -111.152793 49 4477ft 0kts

Navigation Log

Ident Type
Flight plan parsing failed, navigation log unavailable